Time;durP1;ratioP1;P1;durP2;ratioP2;P2;SDS_P1;SDS_P2;PMS_P1;PMS_P2;Temp;Humidity;BMP_temperature;BMP_pressure;BME280_temperature;BME280_humidity;BME280_pressure;Samples;Min_cycle;Max_cycle;Signal;HPM_P1;HPM_P2
2023/12/06 00:00:22;;;;;;;120.90;50.40;;;;;;;-3.98;89.03;100628.98;107578;276;155147;-53
2023/12/06 00:03:16;;;;;;;109.50;46.10;;;;;;;-3.98;89.26;100630.42;107599;276;113868;-52
2023/12/06 00:05:54;;;;;;;92.50;41.20;;;;;;;-3.95;89.02;100635.52;107715;276;94865;-52
2023/12/06 00:08:30;;;;;;;103.00;45.40;;;;;;;-4.00;89.27;100631.73;107547;276;98047;-52
2023/12/06 00:11:06;;;;;;;90.70;39.70;;;;;;;-3.99;89.37;100631.33;107500;276;118972;-51
2023/12/06 00:13:40;;;;;;;109.80;48.20;;;;;;;-3.94;89.28;100634.91;107562;276;154960;-57
2023/12/06 00:16:15;;;;;;;89.30;40.50;;;;;;;-3.92;89.21;100642.52;107645;276;112831;-57
2023/12/06 00:18:49;;;;;;;117.10;48.10;;;;;;;-3.93;89.34;100641.34;107491;276;154814;-53
2023/12/06 00:21:23;;;;;;;117.50;48.40;;;;;;;-3.86;89.20;100641.98;107691;276;97747;-53
2023/12/06 00:23:54;;;;;;;103.20;46.70;;;;;;;-3.83;89.17;100643.01;107552;276;154837;-57
2023/12/06 00:26:35;;;;;;;70.50;36.10;;;;;;;-3.84;89.27;100637.82;107510;276;105923;-57
2023/12/06 00:29:17;;;;;;;74.30;37.50;;;;;;;-3.80;89.22;100643.17;107759;276;113971;-53
2023/12/06 00:31:52;;;;;;;79.80;36.90;;;;;;;-3.79;89.14;100640.86;107377;275;155039;-53
2023/12/06 00:34:32;;;;;;;118.60;49.00;;;;;;;-3.80;89.16;100641.96;107924;275;95754;-52
2023/12/06 00:37:06;;;;;;;93.20;42.50;;;;;;;-3.78;89.13;100645.00;107540;275;154442;-52
2023/12/06 00:39:45;;;;;;;80.80;39.30;;;;;;;-3.78;89.03;100645.54;107527;276;105311;-57
2023/12/06 00:42:25;;;;;;;106.20;44.90;;;;;;;-3.81;89.03;100643.79;107448;276;154948;-57
2023/12/06 00:44:58;;;;;;;110.60;45.30;;;;;;;-3.82;89.06;100639.58;107583;276;93707;-53
2023/12/06 00:47:33;;;;;;;;;;;;;;;-3.81;89.06;100638.15;107655;276;97193;-55
2023/12/06 00:50:09;;;;;;;96.70;41.50;;;;;;;-3.79;89.08;100639.63;107513;276;140643;-56
2023/12/06 00:52:45;;;;;;;87.50;39.90;;;;;;;-3.81;89.21;100641.46;107641;276;105465;-52
2023/12/06 00:55:27;;;;;;;110.10;45.90;;;;;;;-3.79;89.20;100641.40;107338;276;156627;-51
2023/12/06 00:58:06;;;;;;;96.80;40.60;;;;;;;-3.72;89.00;100646.04;107611;276;94830;-51
2023/12/06 01:00:59;;;;;;;91.60;39.50;;;;;;;-3.75;89.12;100647.11;107442;276;154934;-52
2023/12/06 01:03:37;;;;;;;104.90;42.80;;;;;;;-3.74;89.12;100646.84;107586;277;119325;-57
2023/12/06 01:06:19;;;;;;;87.30;39.90;;;;;;;-3.70;89.08;100651.33;107521;276;155453;-56
2023/12/06 01:08:59;;;;;;;83.30;36.50;;;;;;;-3.67;89.06;100651.68;107454;276;114133;-55
2023/12/06 01:11:46;;;;;;;71.40;34.90;;;;;;;-3.68;89.21;100654.58;107671;276;92718;-56
2023/12/06 01:14:23;;;;;;;75.10;36.30;;;;;;;-3.68;89.25;100652.98;107511;276;97613;-56
2023/12/06 01:16:59;;;;;;;73.90;36.30;;;;;;;-3.69;89.15;100657.11;107611;276;118351;-57
2023/12/06 01:19:37;;;;;;;81.10;36.40;;;;;;;-3.71;89.18;100660.02;107372;276;155433;-57
2023/12/06 01:22:10;;;;;;;99.60;42.30;;;;;;;-3.68;89.17;100656.17;107631;276;114721;-57
2023/12/06 01:24:41;;;;;;;80.50;36.60;;;;;;;-3.63;89.07;100662.75;107480;276;155042;-54
2023/12/06 01:27:12;;;;;;;86.50;39.10;;;;;;;-3.62;89.08;100656.15;107614;276;97183;-55
2023/12/06 01:29:45;;;;;;;72.80;36.30;;;;;;;-3.59;89.28;100655.60;107669;276;118082;-57
2023/12/06 01:32:21;;;;;;;70.60;36.30;;;;;;;-3.55;89.18;100657.52;107459;276;106309;-57
2023/12/06 01:34:53;;;;;;;84.80;37.40;;;;;;;-3.48;89.12;100652.33;107901;275;114300;-57
2023/12/06 01:37:35;;;;;;;73.00;33.10;;;;;;;-3.47;89.14;100644.65;107528;276;156089;-57
2023/12/06 01:40:10;;;;;;;80.40;35.50;;;;;;;-3.50;89.34;100642.05;107645;276;98674;-51
2023/12/06 01:42:46;;;;;;;75.20;35.70;;;;;;;-3.48;89.37;100641.23;107559;276;154640;-52
2023/12/06 01:45:25;;;;;;;91.40;39.50;;;;;;;-3.43;89.33;100642.84;107641;276;106116;-50
2023/12/06 01:48:02;;;;;;;70.20;32.30;;;;;;;-3.38;89.29;100647.29;107531;276;155398;-56
2023/12/06 01:50:40;;;;;;;80.10;38.00;;;;;;;-3.36;89.24;100650.84;107513;276;94211;-57
2023/12/06 01:53:19;;;;;;;80.10;39.30;;;;;;;-3.36;89.24;100654.20;107676;276;97841;-51
2023/12/06 01:55:54;;;;;;;76.70;36.90;;;;;;;-3.36;89.18;100654.55;107382;276;155022;-51
2023/12/06 01:58:35;;;;;;;83.30;38.50;;;;;;;-3.35;89.08;100649.91;107675;276;104507;-57
2023/12/06 02:01:15;;;;;;;71.60;32.90;;;;;;;-3.32;89.14;100652.34;107443;276;155201;-57
2023/12/06 02:03:48;;;;;;;71.40;35.10;;;;;;;-3.33;89.19;100650.30;107609;276;96517;-57
2023/12/06 02:06:22;;;;;;;75.90;36.50;;;;;;;-3.26;89.10;100652.83;107545;276;156182;-57
2023/12/06 02:08:59;;;;;;;75.00;35.50;;;;;;;-3.27;89.29;100656.57;107666;276;119754;-55
2023/12/06 02:11:37;;;;;;;72.40;35.30;;;;;;;-3.27;89.30;100652.20;107594;276;105822;-54
2023/12/06 02:14:14;;;;;;;71.30;33.80;;;;;;;-3.24;89.35;100652.36;107306;276;153883;-56
2023/12/06 02:16:48;;;;;;;60.00;29.70;;;;;;;-3.19;89.28;100653.99;107635;276;95413;-56
2023/12/06 02:19:30;;;;;;;66.70;32.40;;;;;;;-3.19;89.41;100659.13;107463;276;155788;-53
2023/12/06 02:22:19;;;;;;;64.20;31.00;;;;;;;-3.26;89.58;100652.45;107629;276;120523;-54
2023/12/06 02:25:05;;;;;;;68.00;31.30;;;;;;;-3.30;89.82;100656.29;107444;276;154684;-51
2023/12/06 02:27:49;;;;;;;69.20;31.80;;;;;;;-3.31;89.73;100658.94;107621;276;114356;-56
2023/12/06 02:30:35;;;;;;;49.50;25.30;;;;;;;-3.33;89.88;100660.55;107501;276;155784;-56
2023/12/06 02:33:15;;;;;;;62.40;31.20;;;;;;;-3.33;89.94;100656.09;107708;276;98052;-53
2023/12/06 02:36:00;;;;;;;72.30;34.10;;;;;;;-3.33;89.90;100653.32;107643;276;119832;-52
2023/12/06 02:38:37;;;;;;;65.70;32.10;;;;;;;-3.32;89.92;100650.79;107528;276;105532;-56
2023/12/06 02:41:21;;;;;;;69.80;33.00;;;;;;;-3.34;90.18;100649.29;107654;276;114630;-57
2023/12/06 02:44:06;;;;;;;72.20;34.30;;;;;;;-3.31;90.26;100644.02;107406;276;154907;-54
2023/12/06 02:46:46;;;;;;;65.40;33.60;;;;;;;-3.25;90.04;100643.09;107648;276;98375;-55
2023/12/06 02:49:20;;;;;;;72.00;34.00;;;;;;;-3.20;89.95;100648.95;107412;277;154519;-53
2023/12/06 02:52:01;;;;;;;64.10;32.10;;;;;;;-3.18;89.85;100653.17;107647;276;106113;-55
2023/12/06 02:54:40;;;;;;;69.20;32.50;;;;;;;-3.19;89.88;100650.80;107494;276;156125;-51
2023/12/06 02:57:26;;;;;;;67.80;32.30;;;;;;;-3.16;89.72;100658.91;107702;275;94605;-52
2023/12/06 03:00:01;;;;;;;73.80;33.30;;;;;;;-3.18;89.81;100659.20;107783;275;156316;-55
2023/12/06 03:02:36;;;;;;;68.40;32.70;;;;;;;-3.13;89.81;100664.70;107526;276;117588;-54
2023/12/06 03:05:09;;;;;;;;;;;;;;;-3.10;89.75;100662.90;107691;276;105183;-53
2023/12/06 03:07:43;;;;;;;66.70;31.60;;;;;;;-3.07;89.71;100667.11;107592;276;141038;-52
2023/12/06 03:10:25;;;;;;;63.60;32.50;;;;;;;-3.05;89.70;100664.37;107856;275;94113;-52
2023/12/06 03:13:04;;;;;;;68.10;33.00;;;;;;;-3.07;89.79;100665.39;107632;276;154144;-54
2023/12/06 03:15:38;;;;;;;67.00;33.20;;;;;;;-3.09;89.74;100668.30;107610;276;119963;-53
2023/12/06 03:18:22;;;;;;;69.40;33.20;;;;;;;-3.11;89.76;100668.60;107569;276;155244;-52
2023/12/06 03:20:57;;;;;;;72.70;34.80;;;;;;;-3.11;89.72;100668.92;107640;276;114661;-52
2023/12/06 03:23:37;;;;;;;62.80;30.00;;;;;;;-3.15;89.79;100668.70;107710;276;95653;-51
2023/12/06 03:26:10;;;;;;;66.50;32.30;;;;;;;-3.17;89.87;100671.10;107377;276;154933;-51
2023/12/06 03:28:48;;;;;;;64.50;31.00;;;;;;;-3.16;89.79;100666.99;107726;276;119025;-58
2023/12/06 03:31:30;;;;;;;68.40;33.90;;;;;;;-3.15;89.73;100667.98;107401;276;156126;-58
2023/12/06 03:34:04;;;;;;;75.30;34.00;;;;;;;-3.12;89.80;100664.48;107678;276;114306;-55
2023/12/06 03:36:45;;;;;;;63.30;32.10;;;;;;;-3.13;89.74;100660.81;107479;276;155759;-54
2023/12/06 03:39:22;;;;;;;64.00;31.90;;;;;;;-3.09;89.81;100665.48;107610;276;97506;-55
2023/12/06 03:41:56;;;;;;;62.70;31.10;;;;;;;-3.08;89.76;100667.52;107647;276;120484;-55
2023/12/06 03:44:29;;;;;;;63.30;30.40;;;;;;;-3.08;89.75;100671.41;107548;276;104955;-52
2023/12/06 03:47:04;;;;;;;61.60;30.80;;;;;;;-3.07;89.80;100675.60;107732;276;113998;-52
2023/12/06 03:49:41;;;;;;;57.40;30.20;;;;;;;-3.06;89.64;100676.22;107616;276;155359;-54
2023/12/06 03:52:12;;;;;;;60.50;29.60;;;;;;;-3.08;89.55;100673.70;107709;276;97318;-53
2023/12/06 03:54:47;;;;;;;66.90;32.50;;;;;;;-3.09;89.49;100673.05;107562;276;154201;-52
2023/12/06 03:57:22;;;;;;;53.00;25.90;;;;;;;-3.11;89.44;100666.70;107669;276;105803;-52
2023/12/06 03:59:58;;;;;;;60.00;31.40;;;;;;;-3.16;89.67;100664.02;107791;276;113011;-51
2023/12/06 04:02:38;;;;;;;61.50;30.30;;;;;;;-3.20;89.66;100660.55;107526;276;94504;-55
2023/12/06 04:05:13;;;;;;;64.40;31.30;;;;;;;-3.19;89.66;100657.34;107745;276;97079;-58
2023/12/06 04:07:56;;;;;;;64.00;32.70;;;;;;;-3.15;89.61;100659.90;107578;276;156468;-58
2023/12/06 04:10:30;;;;;;;58.20;30.00;;;;;;;-3.10;89.57;100662.89;107751;276;105265;-58
2023/12/06 04:13:04;;;;;;;;;;;;;;;-3.13;89.60;100658.55;107427;276;156057;-57
2023/12/06 04:15:35;;;;;;;61.90;31.00;;;;;;;-3.12;89.58;100664.09;107715;275;93927;-56
2023/12/06 04:18:06;;;;;;;59.70;31.50;;;;;;;-3.12;89.61;100662.35;107416;275;155569;-56
2023/12/06 04:20:40;;;;;;;55.10;28.30;;;;;;;-3.15;89.62;100669.42;107578;276;118993;-56
2023/12/06 04:23:20;;;;;;;49.00;25.70;;;;;;;-3.14;89.60;100665.46;107772;276;104576;-57
2023/12/06 04:26:05;;;;;;;53.10;28.10;;;;;;;-3.15;89.41;100667.30;107436;276;155035;-57
2023/12/06 04:28:45;;;;;;;52.70;27.70;;;;;;;-3.18;89.43;100665.00;107972;275;93889;-52
2023/12/06 04:31:22;;;;;;;53.60;27.20;;;;;;;-3.22;89.36;100664.35;107528;275;155056;-53
2023/12/06 04:34:10;;;;;;;53.50;28.20;;;;;;;-3.24;89.46;100665.40;107707;276;119725;-52
2023/12/06 04:36:48;;;;;;;54.00;27.90;;;;;;;-3.26;89.38;100668.33;107494;276;155076;-53
2023/12/06 04:39:24;;;;;;;55.30;29.00;;;;;;;-3.25;89.39;100667.41;107508;277;114024;-51
2023/12/06 04:41:57;;;;;;;47.50;24.80;;;;;;;-3.24;89.40;100668.23;107632;276;94996;-52
2023/12/06 04:44:28;;;;;;;53.90;28.50;;;;;;;-3.25;89.36;100664.22;107544;275;96383;-52
2023/12/06 04:47:05;;;;;;;63.70;31.40;;;;;;;-3.19;89.34;100663.47;107914;275;119460;-52
2023/12/06 04:49:45;;;;;;;61.00;31.10;;;;;;;-3.18;89.35;100663.60;107551;275;156079;-51
2023/12/06 04:52:27;;;;;;;57.30;29.90;;;;;;;-3.18;89.29;100665.19;107676;276;114309;-51
2023/12/06 04:55:04;;;;;;;80.30;38.50;;;;;;;-3.19;89.16;100665.30;107479;276;156229;-55
2023/12/06 04:57:42;;;;;;;55.20;28.80;;;;;;;-3.17;89.18;100665.13;107809;275;98179;-52
2023/12/06 05:00:17;;;;;;;50.20;25.40;;;;;;;-3.20;89.17;100665.88;107739;275;155486;-53
2023/12/06 05:02:54;;;;;;;45.80;25.70;;;;;;;-3.21;89.23;100668.04;107534;276;105154;-53
2023/12/06 05:05:26;;;;;;;48.10;26.40;;;;;;;-3.23;89.12;100669.77;107687;276;114494;-53
2023/12/06 05:07:59;;;;;;;49.30;26.00;;;;;;;-3.24;89.06;100669.09;107562;276;155144;-56
2023/12/06 05:10:30;;;;;;;;;;;;;;;-3.25;89.07;100660.35;107100;276;739678;-55
2023/12/06 05:13:06;;;;;;;52.20;26.30;;;;;;;-3.28;89.03;100656.67;107371;276;141185;-54
2023/12/06 05:15:44;;;;;;;46.60;25.50;;;;;;;-3.30;89.05;100655.77;107499;276;105000;-55
2023/12/06 05:18:16;;;;;;;47.90;25.50;;;;;;;-3.33;89.16;100657.37;107760;275;156384;-54
2023/12/06 05:20:54;;;;;;;69.30;32.80;;;;;;;-3.35;89.17;100651.52;107495;276;93602;-54
2023/12/06 05:23:32;;;;;;;55.30;28.10;;;;;;;-3.36;89.15;100649.05;107664;276;98518;-55
2023/12/06 05:26:12;;;;;;;72.90;33.70;;;;;;;-3.30;89.13;100648.02;107404;276;154738;-55
2023/12/06 05:28:54;;;;;;;50.20;26.80;;;;;;;-3.33;89.28;100645.87;107949;275;104698;-56
2023/12/06 05:31:34;;;;;;;49.00;25.60;;;;;;;-3.33;89.26;100646.24;107495;276;156136;-54
2023/12/06 05:34:13;;;;;;;58.60;30.10;;;;;;;-3.31;89.26;100643.48;107697;276;96001;-56
2023/12/06 05:36:55;;;;;;;64.50;32.30;;;;;;;-3.31;89.25;100643.67;107461;276;154920;-56
2023/12/06 05:39:32;;;;;;;64.60;30.30;;;;;;;-3.30;89.19;100645.71;107513;277;117945;-51
2023/12/06 05:42:13;;;;;;;51.20;27.10;;;;;;;-3.31;89.33;100648.90;107523;276;155383;-51
2023/12/06 05:44:52;;;;;;;70.30;34.20;;;;;;;-3.27;89.25;100655.04;107520;276;113964;-57
2023/12/06 05:47:30;;;;;;;46.70;26.00;;;;;;;-3.25;89.15;100658.55;107453;276;95467;-57
2023/12/06 05:50:06;;;;;;;74.40;36.10;;;;;;;-3.23;89.25;100664.26;107356;276;155891;-52
2023/12/06 05:52:47;;;;;;;53.80;27.40;;;;;;;-3.23;89.26;100661.63;107672;276;120196;-55
2023/12/06 05:55:26;;;;;;;55.40;28.00;;;;;;;-3.23;89.22;100657.41;107414;276;154905;-55
2023/12/06 05:57:58;;;;;;;45.60;24.50;;;;;;;-3.25;89.18;100662.64;107606;276;112893;-53
2023/12/06 06:00:38;;;;;;;54.40;25.80;;;;;;;-3.27;89.16;100660.84;107528;276;156704;-53
2023/12/06 06:03:16;;;;;;;45.00;25.10;;;;;;;-3.27;89.26;100665.92;107654;276;98648;-56
2023/12/06 06:05:49;;;;;;;61.60;30.90;;;;;;;-3.33;89.28;100665.25;107651;276;119126;-57
2023/12/06 06:08:29;;;;;;;53.90;27.90;;;;;;;-3.29;89.27;100664.13;107395;277;155113;-54
2023/12/06 06:11:04;;;;;;;49.90;25.40;;;;;;;-3.26;89.33;100666.77;107639;276;112887;-54
2023/12/06 06:13:37;;;;;;;52.20;26.90;;;;;;;-3.25;89.26;100667.90;107380;276;154921;-52
2023/12/06 06:16:14;;;;;;;50.30;26.10;;;;;;;-3.20;89.24;100673.60;107636;276;96179;-52
2023/12/06 06:18:59;;;;;;;45.20;24.40;;;;;;;-3.12;89.21;100681.19;107411;276;155986;-56
2023/12/06 06:21:36;;;;;;;;;;;;;;;-3.12;89.17;100683.49;107560;276;105374;-56
2023/12/06 06:24:09;;;;;;;45.20;25.00;;;;;;;-3.08;89.16;100683.75;107536;276;141136;-56
2023/12/06 06:26:44;;;;;;;51.00;27.80;;;;;;;-3.05;89.18;100684.60;107494;276;95830;-54
2023/12/06 06:29:19;;;;;;;47.70;26.80;;;;;;;-3.05;89.14;100685.67;107657;276;97782;-56
2023/12/06 06:31:50;;;;;;;;;;;;;;;-3.03;89.23;100683.97;107545;276;156060;-55
2023/12/06 06:34:24;;;;;;;49.60;26.20;;;;;;;-3.01;89.15;100686.61;107522;276;103598;-55
2023/12/06 06:37:00;;;;;;;47.20;26.00;;;;;;;-2.96;89.13;100683.39;107410;276;155067;-55
2023/12/06 06:39:34;;;;;;;46.20;24.90;;;;;;;-2.93;89.08;100683.00;107593;276;91965;-52
2023/12/06 06:42:14;;;;;;;43.00;22.90;;;;;;;-2.91;88.99;100680.24;107560;276;154476;-55
2023/12/06 06:44:51;;;;;;;45.30;24.40;;;;;;;-2.96;89.12;100680.70;107554;276;117657;-53
2023/12/06 06:47:29;;;;;;;47.10;24.90;;;;;;;-2.98;89.23;100679.27;107685;276;103249;-53
2023/12/06 06:50:09;;;;;;;48.60;26.00;;;;;;;-3.00;89.15;100687.45;107387;276;155105;-55
2023/12/06 06:52:50;;;;;;;50.50;26.40;;;;;;;-2.95;89.03;100691.05;107958;275;95312;-56
2023/12/06 06:55:26;;;;;;;53.70;27.30;;;;;;;-2.91;89.04;100694.30;107552;276;155283;-57
2023/12/06 06:58:05;;;;;;;48.90;27.40;;;;;;;-2.85;89.11;100697.64;107646;276;119986;-51
2023/12/06 07:00:46;;;;;;;40.50;21.30;;;;;;;-2.83;89.10;100699.44;107526;276;155264;-51
2023/12/06 07:03:25;;;;;;;49.50;26.50;;;;;;;-2.81;89.03;100699.46;107656;276;114482;-51
2023/12/06 07:06:06;;;;;;;47.90;26.00;;;;;;;-2.72;89.00;100698.75;107670;276;93463;-51
2023/12/06 07:08:46;;;;;;;39.90;22.60;;;;;;;-2.67;89.01;100700.16;107540;276;96653;-57
2023/12/06 07:11:29;;;;;;;47.10;25.30;;;;;;;-2.65;89.02;100697.39;107732;276;120300;-57
2023/12/06 07:14:08;;;;;;;48.00;26.20;;;;;;;-2.62;88.89;100701.75;107417;276;154368;-55
2023/12/06 07:16:43;;;;;;;44.80;25.30;;;;;;;-2.64;88.76;100707.20;107665;276;114349;-55
2023/12/06 07:19:22;;;;;;;58.00;30.30;;;;;;;-2.63;88.64;100706.06;107450;276;154640;-57
2023/12/06 07:22:01;;;;;;;77.90;37.90;;;;;;;-2.63;88.72;100703.58;107872;275;98314;-57
2023/12/06 07:24:35;;;;;;;45.60;25.60;;;;;;;-2.56;88.58;100701.89;107745;276;155148;-58
2023/12/06 07:27:06;;;;;;;50.30;27.30;;;;;;;-2.52;88.61;100702.86;107499;277;106077;-56
2023/12/06 07:29:43;;;;;;;47.70;25.50;;;;;;;-2.50;88.50;100706.59;107703;276;115325;-52
2023/12/06 07:32:23;;;;;;;44.10;25.20;;;;;;;-2.46;88.48;100708.33;107423;276;154865;-52
2023/12/06 07:35:03;;;;;;;47.60;27.10;;;;;;;-2.42;88.43;100701.90;107705;276;96266;-54
2023/12/06 07:37:50;;;;;;;46.40;26.00;;;;;;;-2.39;88.17;100703.42;107361;277;153815;-56
2023/12/06 07:40:32;;;;;;;48.20;27.10;;;;;;;-2.34;88.21;100702.96;107521;276;107942;-57
2023/12/06 07:43:14;;;;;;;43.60;24.30;;;;;;;-2.35;88.11;100699.11;107546;276;154476;-56
2023/12/06 07:45:52;;;;;;;45.50;25.90;;;;;;;-2.32;88.02;100700.54;107697;276;95181;-57
2023/12/06 07:48:33;;;;;;;48.20;28.20;;;;;;;-2.27;88.05;100703.90;107595;276;157352;-55
2023/12/06 07:51:07;;;;;;;44.80;25.90;;;;;;;-2.23;87.93;100704.50;107569;276;119736;-55
2023/12/06 07:53:50;;;;;;;34.80;19.90;;;;;;;-2.19;87.94;100706.36;107777;276;105834;-51
2023/12/06 07:56:22;;;;;;;47.70;26.30;;;;;;;-2.19;87.75;100705.45;107342;276;155996;-51
2023/12/06 07:58:57;;;;;;;44.80;26.10;;;;;;;-2.13;87.72;100701.70;107734;276;93132;-58
2023/12/06 08:01:31;;;;;;;48.10;26.10;;;;;;;-2.04;87.76;100703.59;107463;276;154182;-58
2023/12/06 08:04:13;;;;;;;47.10;27.30;;;;;;;-2.04;87.66;100701.80;107740;276;120126;-52
2023/12/06 08:06:52;;;;;;;54.70;29.80;;;;;;;-1.98;87.64;100703.16;107592;276;153888;-52
2023/12/06 08:09:27;;;;;;;44.80;23.80;;;;;;;-1.95;87.57;100704.38;107720;276;114043;-55
2023/12/06 08:12:06;;;;;;;46.40;25.20;;;;;;;-2.01;87.52;100707.42;107722;276;95265;-55
2023/12/06 08:14:43;;;;;;;47.10;27.00;;;;;;;-1.91;87.48;100710.83;107583;276;97152;-54
2023/12/06 08:17:16;;;;;;;45.70;26.40;;;;;;;-1.87;87.35;100712.10;107524;276;119735;-54
2023/12/06 08:19:49;;;;;;;41.00;23.80;;;;;;;-1.85;87.20;100710.73;107396;277;154878;-55
2023/12/06 08:22:27;;;;;;;47.80;27.80;;;;;;;-1.89;87.16;100712.44;107514;277;114486;-53
2023/12/06 08:25:11;;;;;;;44.40;26.80;;;;;;;-1.87;87.12;100713.38;107597;276;154766;-59
2023/12/06 08:27:48;;;;;;;41.40;24.50;;;;;;;-1.82;86.87;100714.26;107741;276;97335;-55
2023/12/06 08:30:21;;;;;;;46.20;28.10;;;;;;;-1.83;87.03;100712.23;107626;276;154180;-55
2023/12/06 08:32:58;;;;;;;46.10;27.60;;;;;;;-1.82;86.61;100711.80;107701;276;102943;-54
2023/12/06 08:35:38;;;;;;;49.00;27.00;;;;;;;-1.87;86.82;100715.69;107501;276;113757;-54
2023/12/06 08:38:13;;;;;;;47.10;26.80;;;;;;;-1.91;86.71;100718.73;107569;276;155079;-55
2023/12/06 08:40:46;;;;;;;50.50;28.60;;;;;;;-1.83;86.77;100719.10;107507;276;97661;-54
2023/12/06 08:43:27;;;;;;;46.40;25.50;;;;;;;-1.72;86.75;100720.66;107516;276;154652;-58
2023/12/06 08:46:00;;;;;;;46.70;27.90;;;;;;;-1.72;86.62;100729.29;107627;276;105018;-57
2023/12/06 08:48:40;;;;;;;44.70;26.30;;;;;;;-1.74;86.30;100729.58;107515;276;154746;-51
2023/12/06 08:51:18;;;;;;;40.80;25.30;;;;;;;-1.75;86.34;100730.77;107571;276;92898;-52
2023/12/06 08:53:51;;;;;;;44.10;25.50;;;;;;;-1.78;86.21;100733.75;107727;276;97309;-56
2023/12/06 08:56:26;;;;;;;45.50;27.60;;;;;;;-1.80;86.23;100740.27;107367;276;155237;-56
2023/12/06 08:59:06;;;;;;;43.50;24.00;;;;;;;-1.83;86.11;100737.80;107685;276;103739;-57
2023/12/06 09:01:48;;;;;;;45.90;25.80;;;;;;;-1.88;86.07;100738.84;107515;276;155085;-58
2023/12/06 09:04:23;;;;;;;46.30;27.10;;;;;;;-1.88;85.92;100735.14;107642;276;94826;-58
2023/12/06 09:07:03;;;;;;;40.10;22.60;;;;;;;-1.80;85.92;100732.84;107488;276;154556;-58
2023/12/06 09:09:39;;;;;;;49.10;27.20;;;;;;;-1.87;85.83;100732.73;107576;276;119545;-58
2023/12/06 09:12:12;;;;;;;44.60;26.50;;;;;;;-1.78;85.76;100729.55;107480;276;154383;-58
2023/12/06 09:14:44;;;;;;;44.40;25.50;;;;;;;-1.85;85.47;100730.51;107501;276;113592;-52
2023/12/06 09:17:17;;;;;;;49.00;27.80;;;;;;;-1.88;85.55;100734.45;107663;276;94537;-53
2023/12/06 09:19:52;;;;;;;50.20;27.00;;;;;;;-1.91;85.46;100733.42;107440;276;154582;-57
2023/12/06 09:22:36;;;;;;;48.30;26.70;;;;;;;-1.95;85.50;100740.00;107612;276;118390;-56
2023/12/06 09:25:09;;;;;;;47.70;26.50;;;;;;;-1.98;85.54;100741.42;107358;277;154472;-52
2023/12/06 09:27:45;;;;;;;54.50;27.10;;;;;;;-1.99;85.55;100732.33;107571;276;114336;-57
2023/12/06 09:30:17;;;;;;;49.50;27.90;;;;;;;-2.05;85.53;100733.08;107538;276;155184;-62
2023/12/06 09:32:48;;;;;;;41.30;25.20;;;;;;;-2.03;85.49;100726.81;107544;276;96843;-57
2023/12/06 09:35:29;;;;;;;49.70;27.50;;;;;;;-2.13;85.59;100730.61;107520;276;119004;-57
2023/12/06 09:38:00;;;;;;;53.10;30.20;;;;;;;-2.16;85.61;100733.47;107563;276;154376;-51
2023/12/06 09:40:40;;;;;;;54.70;27.80;;;;;;;-2.12;85.65;100731.10;107949;274;113040;-51
2023/12/06 09:43:23;;;;;;;52.90;29.00;;;;;;;-2.00;85.58;100732.23;107608;275;154578;-53
2023/12/06 09:46:04;;;;;;;51.80;28.30;;;;;;;-1.95;85.69;100735.05;107627;276;98403;-56
2023/12/06 09:48:41;;;;;;;61.30;32.10;;;;;;;-1.88;85.61;100736.38;107502;276;155963;-59
2023/12/06 09:51:22;;;;;;;70.00;34.80;;;;;;;-1.98;85.41;100730.48;107687;275;105523;-59
2023/12/06 09:53:56;;;;;;;66.40;33.60;;;;;;;-1.99;85.27;100735.52;107675;275;115825;-59
2023/12/06 09:56:37;;;;;;;56.30;31.60;;;;;;;-2.00;85.13;100743.86;107527;275;95252;-58
2023/12/06 09:59:20;;;;;;;54.30;28.50;;;;;;;-2.14;85.20;100743.73;107902;275;97508;-58
2023/12/06 10:01:57;;;;;;;52.30;28.10;;;;;;;-2.20;85.22;100741.16;107431;276;156134;-57
2023/12/06 10:04:33;;;;;;;52.60;28.90;;;;;;;-2.22;85.27;100736.69;107634;276;106130;-58
2023/12/06 10:07:13;;;;;;;54.20;28.30;;;;;;;-2.27;85.11;100733.33;107514;276;155519;-53
2023/12/06 10:09:52;;;;;;;52.10;28.00;;;;;;;-2.33;85.09;100730.20;107694;276;93577;-56
2023/12/06 10:12:33;;;;;;;55.00;30.10;;;;;;;-2.30;84.97;100733.02;107366;277;155388;-57
2023/12/06 10:15:10;;;;;;;55.80;30.60;;;;;;;-2.30;85.14;100728.92;107544;276;118811;-54
2023/12/06 10:17:51;;;;;;;56.70;30.10;;;;;;;-2.32;84.89;100732.06;107610;276;105547;-55
2023/12/06 10:20:30;;;;;;;55.20;30.10;;;;;;;-2.37;84.95;100739.61;107313;276;155436;-55
2023/12/06 10:23:11;;;;;;;55.10;29.20;;;;;;;-2.33;84.94;100736.88;107665;276;96170;-53
2023/12/06 10:25:50;;;;;;;50.10;26.70;;;;;;;-2.29;84.95;100733.82;107420;276;154828;-52
2023/12/06 10:28:26;;;;;;;53.00;28.90;;;;;;;-2.28;84.91;100732.89;107633;276;119467;-56
2023/12/06 10:31:08;;;;;;;50.90;28.50;;;;;;;-2.25;84.90;100727.92;107472;276;155886;-57
2023/12/06 10:33:55;;;;;;;48.60;27.50;;;;;;;-2.26;84.88;100724.48;107608;276;115039;-54
2023/12/06 10:36:27;;;;;;;52.30;27.30;;;;;;;-2.25;84.78;100723.83;107326;276;154404;-54
2023/12/06 10:39:04;;;;;;;46.70;24.60;;;;;;;-2.33;84.62;100721.38;107645;276;97763;-54
2023/12/06 10:41:42;;;;;;;53.80;27.80;;;;;;;-2.35;84.69;100719.95;107639;276;119776;-54
2023/12/06 10:44:19;;;;;;;51.10;26.10;;;;;;;-2.27;84.64;100718.48;107364;276;155083;-54
2023/12/06 10:46:56;;;;;;;51.20;26.00;;;;;;;-2.24;84.59;100721.17;107651;276;112990;-53
2023/12/06 10:49:32;;;;;;;47.20;25.40;;;;;;;-2.25;84.34;100721.39;107537;276;157150;-53
2023/12/06 10:52:07;;;;;;;54.40;28.20;;;;;;;-2.21;84.47;100721.64;107875;275;97413;-53
2023/12/06 10:54:46;;;;;;;51.20;26.40;;;;;;;-2.21;84.38;100720.23;107726;276;154290;-55
2023/12/06 10:57:25;;;;;;;49.10;25.70;;;;;;;-2.24;84.52;100715.48;107497;277;105609;-57
2023/12/06 11:00:03;;;;;;;44.80;24.70;;;;;;;-2.28;84.48;100715.40;107452;277;113863;-53
2023/12/06 11:02:42;;;;;;;44.50;25.40;;;;;;;-2.32;84.69;100712.71;107549;276;96870;-54
2023/12/06 11:05:18;;;;;;;52.40;27.20;;;;;;;-2.21;84.66;100712.11;107921;275;96709;-53
2023/12/06 11:08:24;;;;;;;44.60;25.00;;;;;;;-2.10;84.38;100716.86;107482;276;154577;-54
2023/12/06 11:11:18;;;;;;;46.30;26.00;;;;;;;-2.03;84.36;100710.36;107663;276;106088;-54
2023/12/06 11:14:06;;;;;;;44.70;25.00;;;;;;;-1.96;84.07;100707.63;107505;276;155991;-56
2023/12/06 11:17:02;;;;;;;48.00;25.60;;;;;;;-2.05;84.05;100704.66;107512;276;93512;-56
2023/12/06 11:19:43;;;;;;;51.50;28.20;;;;;;;-2.05;84.06;100703.50;107392;277;154163;-55
2023/12/06 11:22:17;;;;;;;48.60;25.50;;;;;;;-2.04;83.97;100705.84;107519;277;118618;-55
2023/12/06 11:24:57;;;;;;;48.50;26.80;;;;;;;-2.03;84.04;100705.10;107384;277;156185;-57
2023/12/06 11:27:32;;;;;;;48.40;26.20;;;;;;;-1.97;83.98;100701.31;107497;276;114497;-56
2023/12/06 11:30:19;;;;;;;48.30;26.00;;;;;;;-1.96;83.96;100706.02;107493;276;96236;-59
2023/12/06 11:33:04;;;;;;;48.50;26.20;;;;;;;-1.95;84.05;100701.39;107592;276;95891;-54
2023/12/06 11:35:53;;;;;;;;;;;;;;;-1.84;84.03;100700.98;107748;276;118543;-54
2023/12/06 11:38:43;;;;;;;47.30;24.50;;;;;;;-1.82;83.90;100699.09;107397;277;140000;-58
2023/12/06 11:41:25;;;;;;;46.80;25.60;;;;;;;-1.88;83.92;100696.47;107631;276;114022;-59
2023/12/06 11:44:01;;;;;;;51.80;26.50;;;;;;;-1.88;83.98;100695.23;107395;276;154305;-53
2023/12/06 11:46:36;;;;;;;49.00;25.30;;;;;;;-1.88;83.88;100690.66;107907;275;96949;-54
2023/12/06 11:49:09;;;;;;;45.80;25.50;;;;;;;-1.90;83.95;100694.11;107331;276;154538;-56
2023/12/06 11:51:43;;;;;;;50.70;25.50;;;;;;;-1.78;83.97;100691.92;107768;275;103890;-55